createdAt,value
2022-12-25T00:29:02.826Z,10
2022-12-25T00:58:22.172Z,12
2022-12-25T01:27:27.498Z,10
2022-12-25T01:56:36.821Z,10
2022-12-25T02:25:49.048Z,10
2022-12-25T02:55:02.267Z,8
2022-12-25T03:24:18.351Z,9
2022-12-25T03:53:34.235Z,7
2022-12-25T04:22:54.336Z,7
2022-12-25T04:52:10.751Z,8
2022-12-25T05:21:27.326Z,12
2022-12-25T05:50:48.494Z,7
2022-12-25T06:20:03.681Z,9
2022-12-25T06:49:26.071Z,10
2022-12-25T07:18:45.990Z,9
2022-12-25T07:48:13.469Z,9
2022-12-25T08:16:58.482Z,14
2022-12-25T08:46:10.968Z,10
2022-12-25T09:15:23.857Z,11
2022-12-25T09:44:39.180Z,15
2022-12-25T10:13:53.083Z,9
2022-12-25T10:43:08.219Z,21
2022-12-25T11:12:24.324Z,28
2022-12-25T11:41:44.855Z,26
2022-12-25T12:11:03.958Z,26
2022-12-25T12:39:51.390Z,26
2022-12-25T13:09:19.286Z,23
2022-12-25T13:38:39.600Z,26
2022-12-25T14:07:56.543Z,25
2022-12-25T14:37:18.998Z,22
2022-12-25T15:06:33.578Z,15
2022-12-25T15:35:40.818Z,10
2022-12-25T16:04:54.265Z,7
2022-12-25T16:34:19.052Z,7
2022-12-25T17:03:41.004Z,8
2022-12-25T17:32:54.957Z,8
2022-12-25T18:02:19.579Z,9
2022-12-25T18:31:29.382Z,10
2022-12-25T19:00:44.978Z,11
2022-12-25T19:30:03.646Z,10
2022-12-25T19:59:24.899Z,10
2022-12-25T20:28:44.746Z,14
2022-12-25T20:58:06.391Z,14
2022-12-25T21:27:14.996Z,15
2022-12-25T21:56:27.263Z,14
2022-12-25T22:25:30.240Z,15
2022-12-25T22:54:46.313Z,15
2022-12-25T23:24:05.067Z,15
2022-12-25T23:53:08.660Z,14
